sensor_id;sensor_type;location;lat;lon;timestamp;pressure;altitude;pressure_sealevel;temperature;humidity
35848;BME280;22332;51.954;20.118;2023-04-25T00:00:27;98960.12;;;12.80;70.04
35848;BME280;22332;51.954;20.118;2023-04-25T00:03:53;98961.64;;;12.80;69.86
35848;BME280;22332;51.954;20.118;2023-04-25T00:06:58;98955.20;;;12.84;69.90
35848;BME280;22332;51.954;20.118;2023-04-25T00:10:08;98951.36;;;12.83;70.23
35848;BME280;22332;51.954;20.118;2023-04-25T00:13:15;98948.14;;;12.84;69.91
35848;BME280;22332;51.954;20.118;2023-04-25T00:16:21;98946.05;;;12.83;70.81
35848;BME280;22332;51.954;20.118;2023-04-25T00:19:28;98947.90;;;12.75;70.12
35848;BME280;22332;51.954;20.118;2023-04-25T00:22:34;98946.98;;;12.74;70.38
35848;BME280;22332;51.954;20.118;2023-04-25T00:25:41;98948.88;;;12.72;70.22
35848;BME280;22332;51.954;20.118;2023-04-25T00:28:46;98948.02;;;12.73;70.56
35848;BME280;22332;51.954;20.118;2023-04-25T00:31:52;98950.75;;;12.75;70.10
35848;BME280;22332;51.954;20.118;2023-04-25T00:34:57;98951.84;;;12.78;70.10
35848;BME280;22332;51.954;20.118;2023-04-25T00:38:03;98953.71;;;12.77;70.22
35848;BME280;22332;51.954;20.118;2023-04-25T00:41:09;98954.31;;;12.74;70.39
35848;BME280;22332;51.954;20.118;2023-04-25T00:44:16;98950.76;;;12.70;70.54
35848;BME280;22332;51.954;20.118;2023-04-25T00:47:22;98946.29;;;12.66;70.38
35848;BME280;22332;51.954;20.118;2023-04-25T00:50:29;98942.87;;;12.64;70.69
35848;BME280;22332;51.954;20.118;2023-04-25T00:53:34;98942.17;;;12.65;70.78
35848;BME280;22332;51.954;20.118;2023-04-25T00:56:41;98939.42;;;12.69;70.56
35848;BME280;22332;51.954;20.118;2023-04-25T00:59:47;98942.24;;;12.68;71.25
35848;BME280;22332;51.954;20.118;2023-04-25T01:02:53;98938.72;;;12.58;71.84
35848;BME280;22332;51.954;20.118;2023-04-25T01:05:58;98940.58;;;12.49;71.62
35848;BME280;22332;51.954;20.118;2023-04-25T01:09:05;98943.41;;;12.48;71.13
35848;BME280;22332;51.954;20.118;2023-04-25T01:12:10;98942.95;;;12.46;71.11
35848;BME280;22332;51.954;20.118;2023-04-25T01:15:16;98946.28;;;12.48;71.37
35848;BME280;22332;51.954;20.118;2023-04-25T01:18:22;98942.95;;;12.53;71.43
35848;BME280;22332;51.954;20.118;2023-04-25T01:21:29;98939.53;;;12.54;71.56
35848;BME280;22332;51.954;20.118;2023-04-25T01:24:35;98937.80;;;12.55;71.58
35848;BME280;22332;51.954;20.118;2023-04-25T01:27:41;98939.85;;;12.51;71.79
35848;BME280;22332;51.954;20.118;2023-04-25T01:30:48;98937.63;;;12.44;71.68
35848;BME280;22332;51.954;20.118;2023-04-25T01:33:54;98935.52;;;12.43;71.59
35848;BME280;22332;51.954;20.118;2023-04-25T01:37:00;98938.77;;;12.44;71.53
35848;BME280;22332;51.954;20.118;2023-04-25T01:40:08;98936.73;;;12.45;71.80
35848;BME280;22332;51.954;20.118;2023-04-25T01:43:14;98935.36;;;12.44;71.58
35848;BME280;22332;51.954;20.118;2023-04-25T01:46:20;98935.02;;;12.48;71.69
35848;BME280;22332;51.954;20.118;2023-04-25T01:49:26;98935.11;;;12.51;71.67
35848;BME280;22332;51.954;20.118;2023-04-25T01:52:32;98935.59;;;12.49;71.58
35848;BME280;22332;51.954;20.118;2023-04-25T01:55:38;98934.05;;;12.43;72.08
35848;BME280;22332;51.954;20.118;2023-04-25T01:58:48;98937.20;;;12.34;71.84
35848;BME280;22332;51.954;20.118;2023-04-25T02:01:56;98943.17;;;12.28;72.32
35848;BME280;22332;51.954;20.118;2023-04-25T02:05:05;98941.45;;;12.23;72.94
35848;BME280;22332;51.954;20.118;2023-04-25T02:08:16;98940.07;;;12.20;72.74
35848;BME280;22332;51.954;20.118;2023-04-25T02:11:21;98940.23;;;12.18;72.28
35848;BME280;22332;51.954;20.118;2023-04-25T02:14:59;98940.17;;;12.22;72.70
35848;BME280;22332;51.954;20.118;2023-04-25T02:18:14;98939.80;;;12.15;72.92
35848;BME280;22332;51.954;20.118;2023-04-25T02:21:21;98938.08;;;12.10;72.63
35848;BME280;22332;51.954;20.118;2023-04-25T02:24:26;98941.52;;;12.10;73.02
35848;BME280;22332;51.954;20.118;2023-04-25T02:27:33;98944.48;;;12.05;73.02
35848;BME280;22332;51.954;20.118;2023-04-25T02:30:39;98944.59;;;12.05;73.04
35848;BME280;22332;51.954;20.118;2023-04-25T02:33:45;98940.74;;;12.09;73.11
35848;BME280;22332;51.954;20.118;2023-04-25T02:36:50;98942.06;;;12.10;73.76
35848;BME280;22332;51.954;20.118;2023-04-25T02:39:56;98936.52;;;12.07;73.32
35848;BME280;22332;51.954;20.118;2023-04-25T02:43:02;98930.48;;;12.01;74.10
35848;BME280;22332;51.954;20.118;2023-04-25T02:46:07;98933.83;;;11.92;73.71
35848;BME280;22332;51.954;20.118;2023-04-25T02:49:13;98933.77;;;11.86;74.59
35848;BME280;22332;51.954;20.118;2023-04-25T02:52:18;98934.27;;;11.84;75.11
35848;BME280;22332;51.954;20.118;2023-04-25T02:55:30;98937.84;;;11.82;74.76
35848;BME280;22332;51.954;20.118;2023-04-25T02:58:38;98939.84;;;11.85;74.75
35848;BME280;22332;51.954;20.118;2023-04-25T03:01:44;98943.50;;;11.85;75.04
35848;BME280;22332;51.954;20.118;2023-04-25T03:04:49;98943.81;;;11.84;74.54
35848;BME280;22332;51.954;20.118;2023-04-25T03:07:55;98944.70;;;11.82;74.90
35848;BME280;22332;51.954;20.118;2023-04-25T03:11:01;98943.80;;;11.71;75.99
35848;BME280;22332;51.954;20.118;2023-04-25T03:14:07;98947.17;;;11.67;75.79
35848;BME280;22332;51.954;20.118;2023-04-25T03:17:13;98949.48;;;11.67;75.75
35848;BME280;22332;51.954;20.118;2023-04-25T03:20:18;98949.30;;;11.62;76.34
35848;BME280;22332;51.954;20.118;2023-04-25T03:23:25;98952.49;;;11.56;76.94
35848;BME280;22332;51.954;20.118;2023-04-25T03:26:30;98948.90;;;11.45;76.60
35848;BME280;22332;51.954;20.118;2023-04-25T03:29:37;98955.34;;;11.40;77.60
35848;BME280;22332;51.954;20.118;2023-04-25T03:32:45;98954.77;;;11.32;77.06
35848;BME280;22332;51.954;20.118;2023-04-25T03:35:53;98951.58;;;11.33;77.21
35848;BME280;22332;51.954;20.118;2023-04-25T03:38:59;98953.51;;;11.33;77.65
35848;BME280;22332;51.954;20.118;2023-04-25T03:42:06;98958.55;;;11.29;77.20
35848;BME280;22332;51.954;20.118;2023-04-25T03:45:11;98956.35;;;11.25;77.82
35848;BME280;22332;51.954;20.118;2023-04-25T03:48:19;98960.70;;;11.18;78.56
35848;BME280;22332;51.954;20.118;2023-04-25T03:51:26;98961.49;;;11.12;78.08
35848;BME280;22332;51.954;20.118;2023-04-25T03:54:31;98963.63;;;11.11;77.53
35848;BME280;22332;51.954;20.118;2023-04-25T03:57:43;98963.39;;;11.08;78.15
35848;BME280;22332;51.954;20.118;2023-04-25T04:00:49;98963.35;;;11.01;78.61
35848;BME280;22332;51.954;20.118;2023-04-25T04:03:55;98967.15;;;10.90;78.91
35848;BME280;22332;51.954;20.118;2023-04-25T04:07:02;98968.52;;;10.89;78.54
35848;BME280;22332;51.954;20.118;2023-04-25T04:10:12;98973.02;;;10.86;78.92
35848;BME280;22332;51.954;20.118;2023-04-25T04:13:19;98979.73;;;10.88;78.47
35848;BME280;22332;51.954;20.118;2023-04-25T04:16:24;98983.14;;;10.95;78.79
35848;BME280;22332;51.954;20.118;2023-04-25T04:19:30;98980.73;;;10.95;78.28
35848;BME280;22332;51.954;20.118;2023-04-25T04:23:02;98979.00;;;10.98;78.66
35848;BME280;22332;51.954;20.118;2023-04-25T04:26:08;98973.98;;;10.93;78.54
35848;BME280;22332;51.954;20.118;2023-04-25T04:29:22;98977.61;;;10.85;78.80
35848;BME280;22332;51.954;20.118;2023-04-25T04:32:38;98978.81;;;10.82;78.49
35848;BME280;22332;51.954;20.118;2023-04-25T04:35:44;98983.73;;;10.83;78.71
35848;BME280;22332;51.954;20.118;2023-04-25T04:38:51;98985.21;;;10.79;78.61
35848;BME280;22332;51.954;20.118;2023-04-25T04:42:08;98988.94;;;10.72;78.74
35848;BME280;22332;51.954;20.118;2023-04-25T04:45:31;98995.23;;;10.63;78.51
35848;BME280;22332;51.954;20.118;2023-04-25T04:48:57;98996.63;;;10.64;79.33
35848;BME280;22332;51.954;20.118;2023-04-25T04:52:21;98995.95;;;10.56;78.76
35848;BME280;22332;51.954;20.118;2023-04-25T04:55:34;98996.60;;;10.53;79.00
35848;BME280;22332;51.954;20.118;2023-04-25T04:58:48;99000.80;;;10.54;78.74
35848;BME280;22332;51.954;20.118;2023-04-25T05:02:20;99000.48;;;10.55;78.59
35848;BME280;22332;51.954;20.118;2023-04-25T05:05:49;99005.58;;;10.50;78.06
35848;BME280;22332;51.954;20.118;2023-04-25T05:09:28;99003.91;;;10.42;78.01
35848;BME280;22332;51.954;20.118;2023-04-25T05:12:48;99007.33;;;10.37;78.29
35848;BME280;22332;51.954;20.118;2023-04-25T05:16:13;99011.88;;;10.39;78.18
35848;BME280;22332;51.954;20.118;2023-04-25T05:19:29;99015.55;;;10.37;78.09
35848;BME280;22332;51.954;20.118;2023-04-25T05:23:02;99019.67;;;10.32;78.43
35848;BME280;22332;51.954;20.118;2023-04-25T05:26:34;99019.39;;;10.33;78.61
35848;BME280;22332;51.954;20.118;2023-04-25T05:29:58;99027.41;;;10.36;77.91
35848;BME280;22332;51.954;20.118;2023-04-25T05:33:13;99026.48;;;10.37;77.72
35848;BME280;22332;51.954;20.118;2023-04-25T05:36:20;99027.63;;;10.34;77.95
35848;BME280;22332;51.954;20.118;2023-04-25T05:39:27;99027.95;;;10.33;77.97
35848;BME280;22332;51.954;20.118;2023-04-25T05:42:53;99034.85;;;10.25;78.64
35848;BME280;22332;51.954;20.118;2023-04-25T05:45:59;99038.55;;;10.19;78.57
35848;BME280;22332;51.954;20.118;2023-04-25T05:49:24;99043.81;;;10.17;78.92
35848;BME280;22332;51.954;20.118;2023-04-25T05:52:36;99045.50;;;10.15;78.63
35848;BME280;22332;51.954;20.118;2023-04-25T05:56:05;99051.13;;;10.10;78.81
35848;BME280;22332;51.954;20.118;2023-04-25T05:59:11;99050.40;;;10.15;78.49
35848;BME280;22332;51.954;20.118;2023-04-25T06:02:17;99053.91;;;10.25;78.32
35848;BME280;22332;51.954;20.118;2023-04-25T06:05:23;99052.44;;;10.39;78.51
35848;BME280;22332;51.954;20.118;2023-04-25T06:08:29;99052.86;;;10.43;77.99
35848;BME280;22332;51.954;20.118;2023-04-25T06:11:34;99055.41;;;10.49;77.96
35848;BME280;22332;51.954;20.118;2023-04-25T06:14:42;99058.86;;;10.48;77.83
35848;BME280;22332;51.954;20.118;2023-04-25T06:17:47;99057.94;;;10.50;77.46
35848;BME280;22332;51.954;20.118;2023-04-25T06:20:53;99061.86;;;10.44;77.21
35848;BME280;22332;51.954;20.118;2023-04-25T06:24:00;99068.52;;;10.41;77.01
35848;BME280;22332;51.954;20.118;2023-04-25T06:27:06;99068.52;;;10.47;76.88
35848;BME280;22332;51.954;20.118;2023-04-25T06:30:13;99072.16;;;10.51;76.58
35848;BME280;22332;51.954;20.118;2023-04-25T06:33:19;99074.59;;;10.41;76.43
35848;BME280;22332;51.954;20.118;2023-04-25T06:36:27;99077.11;;;10.27;76.12
35848;BME280;22332;51.954;20.118;2023-04-25T06:39:36;99075.48;;;10.19;76.87
35848;BME280;22332;51.954;20.118;2023-04-25T06:42:43;99074.24;;;10.14;76.92
35848;BME280;22332;51.954;20.118;2023-04-25T06:46:09;99071.42;;;10.10;77.07
35848;BME280;22332;51.954;20.118;2023-04-25T06:49:20;99073.59;;;10.13;76.38
35848;BME280;22332;51.954;20.118;2023-04-25T06:52:25;99071.74;;;10.12;76.61
35848;BME280;22332;51.954;20.118;2023-04-25T06:55:31;99078.27;;;10.20;76.43
35848;BME280;22332;51.954;20.118;2023-04-25T06:58:58;99074.03;;;10.17;76.64
35848;BME280;22332;51.954;20.118;2023-04-25T07:02:09;99074.48;;;10.22;76.72
35848;BME280;22332;51.954;20.118;2023-04-25T07:05:14;99077.75;;;10.37;76.92
35848;BME280;22332;51.954;20.118;2023-04-25T07:08:20;99076.57;;;10.47;76.73
35848;BME280;22332;51.954;20.118;2023-04-25T07:11:26;99071.00;;;10.51;76.28
35848;BME280;22332;51.954;20.118;2023-04-25T07:14:31;99073.74;;;10.58;76.00
35848;BME280;22332;51.954;20.118;2023-04-25T07:17:37;99072.31;;;10.65;76.52
35848;BME280;22332;51.954;20.118;2023-04-25T07:20:43;99071.91;;;10.82;76.24
35848;BME280;22332;51.954;20.118;2023-04-25T07:23:49;99072.13;;;11.01;76.05
35848;BME280;22332;51.954;20.118;2023-04-25T07:26:57;99072.99;;;11.17;75.16
35848;BME280;22332;51.954;20.118;2023-04-25T07:30:11;99070.17;;;11.32;75.10
35848;BME280;22332;51.954;20.118;2023-04-25T07:33:17;99080.00;;;11.19;73.55
35848;BME280;22332;51.954;20.118;2023-04-25T07:36:24;99081.83;;;11.08;74.44
35848;BME280;22332;51.954;20.118;2023-04-25T07:39:31;99083.03;;;11.06;75.07
35848;BME280;22332;51.954;20.118;2023-04-25T07:42:38;99081.05;;;11.14;74.65
35848;BME280;22332;51.954;20.118;2023-04-25T07:45:44;99083.15;;;11.19;74.32
35848;BME280;22332;51.954;20.118;2023-04-25T07:48:50;99081.23;;;11.26;74.28
35848;BME280;22332;51.954;20.118;2023-04-25T07:51:56;99079.96;;;11.32;73.05
35848;BME280;22332;51.954;20.118;2023-04-25T07:55:02;99077.80;;;11.26;72.39
35848;BME280;22332;51.954;20.118;2023-04-25T07:58:17;99076.48;;;11.37;73.28
35848;BME280;22332;51.954;20.118;2023-04-25T08:01:26;99075.88;;;11.45;72.73
35848;BME280;22332;51.954;20.118;2023-04-25T08:04:35;99081.71;;;11.50;71.99
35848;BME280;22332;51.954;20.118;2023-04-25T08:07:43;99083.74;;;11.58;72.16
35848;BME280;22332;51.954;20.118;2023-04-25T08:10:49;99091.26;;;11.60;70.20
35848;BME280;22332;51.954;20.118;2023-04-25T08:13:56;99094.02;;;11.51;70.66
35848;BME280;22332;51.954;20.118;2023-04-25T08:17:01;99093.55;;;11.52;70.70
35848;BME280;22332;51.954;20.118;2023-04-25T08:20:10;99093.63;;;11.55;69.88
35848;BME280;22332;51.954;20.118;2023-04-25T08:23:16;99087.75;;;11.56;70.37
35848;BME280;22332;51.954;20.118;2023-04-25T08:26:44;99089.27;;;11.85;70.04
35848;BME280;22332;51.954;20.118;2023-04-25T08:29:53;99089.71;;;11.93;69.21
35848;BME280;22332;51.954;20.118;2023-04-25T08:32:59;99090.27;;;11.93;68.41
35848;BME280;22332;51.954;20.118;2023-04-25T08:36:23;99090.86;;;11.88;68.46
35848;BME280;22332;51.954;20.118;2023-04-25T08:39:29;99090.55;;;12.04;69.46
35848;BME280;22332;51.954;20.118;2023-04-25T08:42:52;99096.48;;;12.13;68.89
35848;BME280;22332;51.954;20.118;2023-04-25T08:46:00;99094.55;;;12.13;69.60
35848;BME280;22332;51.954;20.118;2023-04-25T08:49:18;99097.14;;;12.23;69.59
35848;BME280;22332;51.954;20.118;2023-04-25T08:52:24;99098.64;;;12.33;69.45
35848;BME280;22332;51.954;20.118;2023-04-25T08:55:33;99104.86;;;12.39;69.06
35848;BME280;22332;51.954;20.118;2023-04-25T08:58:38;99106.34;;;12.28;68.52
35848;BME280;22332;51.954;20.118;2023-04-25T09:01:44;99108.84;;;12.06;68.27
35848;BME280;22332;51.954;20.118;2023-04-25T09:04:50;99111.68;;;11.96;69.14
35848;BME280;22332;51.954;20.118;2023-04-25T09:07:58;99112.88;;;12.11;69.34
35848;BME280;22332;51.954;20.118;2023-04-25T09:11:05;99114.67;;;12.24;68.31
35848;BME280;22332;51.954;20.118;2023-04-25T09:14:16;99121.40;;;12.26;67.67
35848;BME280;22332;51.954;20.118;2023-04-25T09:17:37;99123.41;;;12.24;68.20
35848;BME280;22332;51.954;20.118;2023-04-25T09:20:45;99124.16;;;12.26;67.45
35848;BME280;22332;51.954;20.118;2023-04-25T09:23:50;99129.34;;;12.26;67.39
35848;BME280;22332;51.954;20.118;2023-04-25T09:26:56;99128.35;;;12.30;67.22
35848;BME280;22332;51.954;20.118;2023-04-25T09:30:02;99138.85;;;12.10;65.84
35848;BME280;22332;51.954;20.118;2023-04-25T09:33:34;99140.11;;;11.89;66.79
35848;BME280;22332;51.954;20.118;2023-04-25T09:36:41;99141.17;;;11.83;66.69
35848;BME280;22332;51.954;20.118;2023-04-25T09:40:08;99141.80;;;11.69;66.45
35848;BME280;22332;51.954;20.118;2023-04-25T09:43:27;99140.52;;;11.61;66.90
35848;BME280;22332;51.954;20.118;2023-04-25T09:46:37;99142.93;;;11.57;66.91
35848;BME280;22332;51.954;20.118;2023-04-25T09:50:03;99140.59;;;11.75;67.92
35848;BME280;22332;51.954;20.118;2023-04-25T09:53:19;99141.96;;;11.93;67.19
35848;BME280;22332;51.954;20.118;2023-04-25T09:56:38;99142.05;;;12.21;67.11
35848;BME280;22332;51.954;20.118;2023-04-25T09:59:46;99143.48;;;12.48;67.21
35848;BME280;22332;51.954;20.118;2023-04-25T10:02:53;99144.53;;;12.69;65.34
35848;BME280;22332;51.954;20.118;2023-04-25T10:06:23;99146.68;;;12.66;64.65
35848;BME280;22332;51.954;20.118;2023-04-25T10:09:33;99151.09;;;12.60;64.25
35848;BME280;22332;51.954;20.118;2023-04-25T10:12:41;99150.48;;;12.61;64.10
35848;BME280;22332;51.954;20.118;2023-04-25T10:15:48;99148.11;;;12.78;65.54
35848;BME280;22332;51.954;20.118;2023-04-25T10:18:55;99154.66;;;13.04;63.93
35848;BME280;22332;51.954;20.118;2023-04-25T10:22:05;99157.28;;;13.07;63.60
35848;BME280;22332;51.954;20.118;2023-04-25T10:25:12;99153.95;;;13.07;63.78
35848;BME280;22332;51.954;20.118;2023-04-25T10:28:18;99154.39;;;13.26;63.94
35848;BME280;22332;51.954;20.118;2023-04-25T10:31:24;99154.13;;;13.31;61.50
35848;BME280;22332;51.954;20.118;2023-04-25T10:34:41;99155.44;;;13.23;61.84
35848;BME280;22332;51.954;20.118;2023-04-25T10:38:02;99152.30;;;13.28;62.08
35848;BME280;22332;51.954;20.118;2023-04-25T10:41:09;99149.51;;;13.42;62.01
35848;BME280;22332;51.954;20.118;2023-04-25T10:44:15;99145.71;;;13.49;63.00
35848;BME280;22332;51.954;20.118;2023-04-25T10:47:35;99147.72;;;13.58;62.35
35848;BME280;22332;51.954;20.118;2023-04-25T10:50:41;99144.85;;;13.61;62.67
35848;BME280;22332;51.954;20.118;2023-04-25T10:53:48;99140.98;;;13.76;62.37
35848;BME280;22332;51.954;20.118;2023-04-25T10:57:01;99141.00;;;13.92;61.49
35848;BME280;22332;51.954;20.118;2023-04-25T11:00:16;99142.81;;;13.92;59.15
35848;BME280;22332;51.954;20.118;2023-04-25T11:03:25;99132.65;;;14.00;61.42
35848;BME280;22332;51.954;20.118;2023-04-25T11:06:37;99130.45;;;14.15;60.90
35848;BME280;22332;51.954;20.118;2023-04-25T11:09:48;99132.56;;;14.25;60.90
35848;BME280;22332;51.954;20.118;2023-04-25T11:12:54;99137.20;;;14.09;57.67
35848;BME280;22332;51.954;20.118;2023-04-25T11:16:00;99136.45;;;13.87;57.91
35848;BME280;22332;51.954;20.118;2023-04-25T11:19:05;99138.87;;;13.70;58.14
35848;BME280;22332;51.954;20.118;2023-04-25T11:22:11;99133.00;;;13.56;59.33
35848;BME280;22332;51.954;20.118;2023-04-25T11:25:17;99135.23;;;13.50;59.39
35848;BME280;22332;51.954;20.118;2023-04-25T11:28:23;99137.48;;;13.44;57.96
35848;BME280;22332;51.954;20.118;2023-04-25T11:31:30;99131.29;;;13.40;59.57
35848;BME280;22332;51.954;20.118;2023-04-25T11:34:35;99131.44;;;13.32;58.50
35848;BME280;22332;51.954;20.118;2023-04-25T11:37:41;99131.64;;;13.25;59.87
35848;BME280;22332;51.954;20.118;2023-04-25T11:40:51;99131.55;;;13.17;59.41
35848;BME280;22332;51.954;20.118;2023-04-25T11:43:56;99130.40;;;13.05;59.36
35848;BME280;22332;51.954;20.118;2023-04-25T11:47:02;99134.71;;;13.10;60.11
35848;BME280;22332;51.954;20.118;2023-04-25T11:50:09;99134.19;;;13.19;59.61
35848;BME280;22332;51.954;20.118;2023-04-25T11:53:15;99134.39;;;13.19;59.08
35848;BME280;22332;51.954;20.118;2023-04-25T11:56:23;99133.05;;;13.22;59.79
35848;BME280;22332;51.954;20.118;2023-04-25T11:59:29;99134.32;;;13.31;59.63
35848;BME280;22332;51.954;20.118;2023-04-25T12:02:36;99136.52;;;13.23;58.63
35848;BME280;22332;51.954;20.118;2023-04-25T12:05:42;99131.08;;;13.14;58.90
35848;BME280;22332;51.954;20.118;2023-04-25T12:09:02;99135.98;;;13.09;58.68
35848;BME280;22332;51.954;20.118;2023-04-25T12:12:11;99134.64;;;13.11;58.76
35848;BME280;22332;51.954;20.118;2023-04-25T12:15:18;99132.67;;;13.13;57.99
35848;BME280;22332;51.954;20.118;2023-04-25T12:18:25;99137.60;;;13.02;56.88
35848;BME280;22332;51.954;20.118;2023-04-25T12:21:33;99145.35;;;12.85;55.74
35848;BME280;22332;51.954;20.118;2023-04-25T12:24:39;99142.91;;;12.74;57.23
35848;BME280;22332;51.954;20.118;2023-04-25T12:27:44;99144.55;;;12.76;57.60
35848;BME280;22332;51.954;20.118;2023-04-25T12:30:59;99146.64;;;12.77;57.85
35848;BME280;22332;51.954;20.118;2023-04-25T12:34:06;99139.92;;;12.86;58.71
35848;BME280;22332;51.954;20.118;2023-04-25T12:37:12;99139.55;;;13.05;58.52
35848;BME280;22332;51.954;20.118;2023-04-25T12:40:18;99138.94;;;13.14;58.65
35848;BME280;22332;51.954;20.118;2023-04-25T12:43:23;99140.75;;;13.00;58.34
35848;BME280;22332;51.954;20.118;2023-04-25T12:46:29;99146.34;;;12.85;59.26
35848;BME280;22332;51.954;20.118;2023-04-25T12:49:35;99144.48;;;12.79;60.24
35848;BME280;22332;51.954;20.118;2023-04-25T12:52:40;99145.89;;;12.81;60.26
35848;BME280;22332;51.954;20.118;2023-04-25T12:55:46;99144.41;;;12.86;60.58
35848;BME280;22332;51.954;20.118;2023-04-25T12:58:52;99141.64;;;12.97;60.84
35848;BME280;22332;51.954;20.118;2023-04-25T13:01:57;99139.27;;;12.94;61.18
35848;BME280;22332;51.954;20.118;2023-04-25T13:05:04;99141.50;;;12.84;61.47
35848;BME280;22332;51.954;20.118;2023-04-25T13:08:09;99138.35;;;12.75;61.69
35848;BME280;22332;51.954;20.118;2023-04-25T13:11:15;99139.32;;;12.73;62.11
35848;BME280;22332;51.954;20.118;2023-04-25T13:14:21;99140.70;;;12.71;62.37
35848;BME280;22332;51.954;20.118;2023-04-25T13:17:26;99134.50;;;12.62;63.17
35848;BME280;22332;51.954;20.118;2023-04-25T13:20:32;99136.70;;;12.63;63.24
35848;BME280;22332;51.954;20.118;2023-04-25T13:23:38;99134.27;;;12.64;63.54
35848;BME280;22332;51.954;20.118;2023-04-25T13:26:44;99132.23;;;12.54;63.50
35848;BME280;22332;51.954;20.118;2023-04-25T13:29:51;99135.52;;;12.56;63.67
35848;BME280;22332;51.954;20.118;2023-04-25T13:32:56;99133.45;;;12.49;64.20
35848;BME280;22332;51.954;20.118;2023-04-25T13:36:07;99131.61;;;12.45;63.59
35848;BME280;22332;51.954;20.118;2023-04-25T13:39:13;99138.54;;;12.47;63.39
35848;BME280;22332;51.954;20.118;2023-04-25T13:42:18;99137.38;;;12.36;63.05
35848;BME280;22332;51.954;20.118;2023-04-25T13:45:24;99137.36;;;12.26;62.79
35848;BME280;22332;51.954;20.118;2023-04-25T13:48:29;99142.21;;;12.20;63.20
35848;BME280;22332;51.954;20.118;2023-04-25T13:51:35;99144.27;;;12.05;63.21
35848;BME280;22332;51.954;20.118;2023-04-25T13:54:40;99145.24;;;11.95;63.58
35848;BME280;22332;51.954;20.118;2023-04-25T13:57:46;99141.02;;;11.92;64.42
35848;BME280;22332;51.954;20.118;2023-04-25T14:00:51;99145.08;;;11.86;63.84
35848;BME280;22332;51.954;20.118;2023-04-25T14:03:58;99147.66;;;11.83;64.02
35848;BME280;22332;51.954;20.118;2023-04-25T14:07:05;99149.69;;;11.76;63.55
35848;BME280;22332;51.954;20.118;2023-04-25T14:10:11;99157.64;;;11.61;63.88
35848;BME280;22332;51.954;20.118;2023-04-25T14:13:17;99159.68;;;11.43;64.44
35848;BME280;22332;51.954;20.118;2023-04-25T14:16:22;99166.88;;;11.31;64.81
35848;BME280;22332;51.954;20.118;2023-04-25T14:19:28;99167.66;;;11.22;65.31
35848;BME280;22332;51.954;20.118;2023-04-25T14:22:34;99170.26;;;11.16;65.62
35848;BME280;22332;51.954;20.118;2023-04-25T14:25:39;99170.02;;;11.14;66.53
35848;BME280;22332;51.954;20.118;2023-04-25T14:28:46;99166.33;;;11.12;66.53
35848;BME280;22332;51.954;20.118;2023-04-25T14:31:51;99164.27;;;11.13;67.14
35848;BME280;22332;51.954;20.118;2023-04-25T14:34:57;99168.31;;;11.13;66.93
35848;BME280;22332;51.954;20.118;2023-04-25T14:38:03;99163.98;;;11.21;67.06
35848;BME280;22332;51.954;20.118;2023-04-25T14:41:09;99162.02;;;11.23;66.72
35848;BME280;22332;51.954;20.118;2023-04-25T14:44:15;99163.20;;;11.17;67.04
35848;BME280;22332;51.954;20.118;2023-04-25T14:47:21;99164.81;;;11.19;66.90
35848;BME280;22332;51.954;20.118;2023-04-25T14:50:26;99164.64;;;11.20;66.96
35848;BME280;22332;51.954;20.118;2023-04-25T14:53:32;99166.77;;;11.24;67.21
35848;BME280;22332;51.954;20.118;2023-04-25T14:56:38;99165.17;;;11.23;67.38
35848;BME280;22332;51.954;20.118;2023-04-25T14:59:43;99166.45;;;11.26;67.51
35848;BME280;22332;51.954;20.118;2023-04-25T15:02:49;99170.20;;;11.30;68.11
35848;BME280;22332;51.954;20.118;2023-04-25T15:05:56;99172.13;;;11.36;67.96
35848;BME280;22332;51.954;20.118;2023-04-25T15:09:03;99172.77;;;11.45;68.68
35848;BME280;22332;51.954;20.118;2023-04-25T15:12:09;99175.22;;;11.47;68.87
35848;BME280;22332;51.954;20.118;2023-04-25T15:15:15;99180.20;;;11.38;68.77
35848;BME280;22332;51.954;20.118;2023-04-25T15:18:21;99179.50;;;11.23;68.95
35848;BME280;22332;51.954;20.118;2023-04-25T15:21:27;99186.91;;;11.07;70.33
35848;BME280;22332;51.954;20.118;2023-04-25T15:24:33;99187.30;;;10.91;70.24
35848;BME280;22332;51.954;20.118;2023-04-25T15:27:39;99186.20;;;10.84;70.66
35848;BME280;22332;51.954;20.118;2023-04-25T15:30:47;99185.77;;;10.76;71.28
35848;BME280;22332;51.954;20.118;2023-04-25T15:33:53;99187.88;;;10.71;71.13
35848;BME280;22332;51.954;20.118;2023-04-25T15:36:59;99186.64;;;10.74;72.17
35848;BME280;22332;51.954;20.118;2023-04-25T15:40:07;99177.99;;;10.77;72.31
35848;BME280;22332;51.954;20.118;2023-04-25T15:43:14;99175.23;;;10.82;71.72
35848;BME280;22332;51.954;20.118;2023-04-25T15:46:20;99172.23;;;10.84;71.95
35848;BME280;22332;51.954;20.118;2023-04-25T15:49:27;99172.33;;;10.84;71.65
35848;BME280;22332;51.954;20.118;2023-04-25T15:52:32;99176.91;;;10.86;71.24
35848;BME280;22332;51.954;20.118;2023-04-25T15:55:38;99177.14;;;10.99;71.40
35848;BME280;22332;51.954;20.118;2023-04-25T15:58:44;99182.88;;;11.12;71.08
35848;BME280;22332;51.954;20.118;2023-04-25T16:01:49;99181.92;;;11.17;71.16
35848;BME280;22332;51.954;20.118;2023-04-25T16:04:55;99181.16;;;11.15;71.43
35848;BME280;22332;51.954;20.118;2023-04-25T16:08:01;99187.31;;;11.10;71.55
35848;BME280;22332;51.954;20.118;2023-04-25T16:11:08;99189.20;;;11.01;71.98
35848;BME280;22332;51.954;20.118;2023-04-25T16:14:13;99184.89;;;10.95;72.33
35848;BME280;22332;51.954;20.118;2023-04-25T16:17:18;99183.45;;;10.89;72.39
35848;BME280;22332;51.954;20.118;2023-04-25T16:20:24;99186.52;;;10.74;73.48
35848;BME280;22332;51.954;20.118;2023-04-25T16:23:30;99182.89;;;10.62;72.56
35848;BME280;22332;51.954;20.118;2023-04-25T16:26:36;99183.26;;;10.57;72.56